Time;durP1;ratioP1;P1;durP2;ratioP2;P2;SDS_P1;SDS_P2;PMS_P1;PMS_P2;Temp;Humidity;BMP_temperature;BMP_pressure;BME280_temperature;BME280_humidity;BME280_pressure;Samples;Min_cycle;Max_cycle;Signal;HPM_P1;HPM_P2
2022/08/04 00:03:59;;;;;;;8.02;2.60;;;;;;;22.15;44.10;99637.66;10336838;28;20053;-78
2022/08/04 00:09:09;;;;;;;4.47;2.10;;;;;;;21.64;45.02;99636.28;10333253;28;20123;-78
2022/08/04 00:14:14;;;;;;;5.38;2.30;;;;;;;21.45;45.30;99639.28;10335000;28;20057;-78
2022/08/04 00:19:24;;;;;;;7.32;2.00;;;;;;;21.60;45.08;99637.56;10334700;28;20097;-78
2022/08/04 00:24:29;;;;;;;3.60;2.20;;;;;;;21.23;45.70;99642.59;10333887;28;20042;-78
2022/08/04 00:29:32;;;;;;;5.45;2.00;;;;;;;20.97;46.49;99646.22;10329355;28;20054;-78
2022/08/04 00:34:35;;;;;;;5.30;2.47;;;;;;;20.82;47.02;99649.69;10348714;28;20112;-78
2022/08/04 00:39:38;;;;;;;5.13;2.10;;;;;;;20.62;47.27;99656.28;10334076;28;20057;-78
2022/08/04 00:45:25;;;;;;;6.07;2.40;;;;;;;20.79;47.53;99652.66;10335314;28;20077;-78
2022/08/04 00:50:42;;;;;;;3.13;1.90;;;;;;;21.04;47.21;99655.22;10333130;28;20078;-78
2022/08/04 00:56:07;;;;;;;5.47;2.22;;;;;;;21.11;46.55;99651.88;10336887;28;20104;-78
2022/08/04 01:01:38;;;;;;;4.07;2.08;;;;;;;21.26;46.82;99648.41;10332786;28;20081;-78
2022/08/04 01:06:48;;;;;;;5.72;2.17;;;;;;;20.84;47.10;99651.19;10347934;28;20045;-78
2022/08/04 01:12:31;;;;;;;5.28;2.38;;;;;;;20.80;48.12;99657.00;10347613;28;20136;-78
2022/08/04 01:17:46;;;;;;;4.25;2.10;;;;;;;20.90;47.88;99650.53;10333866;28;20054;-78
2022/08/04 01:23:00;;;;;;;6.80;2.45;;;;;;;21.03;47.07;99644.72;10333056;28;20167;-78
2022/08/04 01:28:40;;;;;;;8.43;2.40;;;;;;;20.88;47.33;99643.72;10328592;28;20135;-78
2022/08/04 01:33:47;;;;;;;4.30;2.30;;;;;;;21.01;46.90;99644.88;10346050;28;20393;-78
2022/08/04 01:44:30;;;;;;;4.35;2.33;;;;;;;20.75;47.82;99638.03;10325907;28;20054;-77
2022/08/04 01:49:32;;;;;;;4.28;2.70;;;;;;;20.75;47.80;99635.38;10334233;28;20058;-76
2022/08/04 01:54:42;;;;;;;4.13;2.30;;;;;;;20.63;48.08;99636.69;10333738;28;20078;-77
2022/08/04 01:59:46;;;;;;;5.30;2.42;;;;;;;20.51;48.40;99622.84;10345670;28;20144;-77
2022/08/04 02:04:48;;;;;;;5.25;2.55;;;;;;;20.41;48.54;99629.28;10339051;28;20066;-77
2022/08/04 02:10:05;;;;;;;5.13;2.50;;;;;;;20.32;48.91;99636.41;10347044;28;20061;-77
2022/08/04 02:15:25;;;;;;;5.40;2.88;;;;;;;20.31;49.02;99628.59;10344292;28;20096;-77
2022/08/04 02:20:47;;;;;;;4.33;2.50;;;;;;;20.16;49.57;99628.38;10345985;28;20050;-77
2022/08/04 02:25:56;;;;;;;4.18;2.45;;;;;;;20.17;49.55;99616.78;10344687;28;20077;-77
2022/08/04 02:31:30;;;;;;;4.75;2.78;;;;;;;20.02;49.97;99624.50;10360716;28;20132;-77
2022/08/04 02:36:41;;;;;;;5.90;2.80;;;;;;;20.06;49.96;99622.34;10344545;28;20756;-77
2022/08/04 02:41:46;;;;;;;5.00;2.85;;;;;;;20.03;49.90;99625.34;10360228;28;20049;-76
2022/08/04 02:46:51;;;;;;;5.95;2.63;;;;;;;20.09;49.65;99619.41;10344144;28;20111;-77
2022/08/04 02:51:56;;;;;;;9.55;2.60;;;;;;;20.10;49.68;99613.06;10345781;28;20058;-77
2022/08/04 02:56:59;;;;;;;5.13;2.55;;;;;;;19.99;50.27;99618.69;10343334;28;20058;-77
2022/08/04 03:02:01;;;;;;;3.67;2.42;;;;;;;19.90;50.46;99609.84;10342454;28;20061;-77
2022/08/04 03:07:27;;;;;;;4.68;2.50;;;;;;;19.82;50.62;99612.47;10340090;28;20054;-76
2022/08/04 03:13:01;;;;;;;3.83;2.38;;;;;;;19.48;50.84;99616.03;10352021;28;20390;-77
2022/08/04 03:18:14;;;;;;;8.88;2.42;;;;;;;19.70;50.69;99608.38;10337664;28;20057;-77
2022/08/04 03:23:48;;;;;;;3.95;2.67;;;;;;;19.68;51.16;99610.38;10335532;28;20135;-76
2022/08/04 03:29:28;;;;;;;5.45;2.78;;;;;;;19.17;52.11;99616.47;10351725;28;20108;-77
2022/08/04 03:34:49;;;;;;;4.35;2.92;;;;;;;18.76;53.29;99619.72;10351507;28;20488;-76
2022/08/04 03:40:04;;;;;;;5.15;2.70;;;;;;;18.90;53.21;99616.53;10338119;28;20144;-76
2022/08/04 03:45:17;;;;;;;7.13;3.00;;;;;;;19.11;52.38;99624.22;10348603;28;20053;-77
2022/08/04 03:50:40;;;;;;;3.92;2.47;;;;;;;19.29;52.09;99620.56;10351869;28;20042;-77
2022/08/04 03:56:03;;;;;;;5.82;3.00;;;;;;;19.30;52.06;99616.06;10334544;28;20458;-77
2022/08/04 04:01:39;;;;;;;6.78;2.72;;;;;;;19.22;52.12;99622.13;10336234;28;20081;-77
2022/08/04 04:07:38;;;;;;;5.00;2.92;;;;;;;18.58;53.65;99624.16;10350177;28;20149;-76
2022/08/04 04:13:27;;;;;;;7.40;3.00;;;;;;;18.45;54.11;99618.38;10352626;28;20053;-77
2022/08/04 04:18:37;;;;;;;7.60;3.15;;;;;;;18.64;53.84;99618.28;10350063;28;20050;-76
2022/08/04 04:23:57;;;;;;;;;;;;;;;18.32;53.98;99621.38;10338335;28;20080;-76
2022/08/04 04:29:19;;;;;;;4.43;2.80;;;;;;;18.67;53.91;99620.59;10352886;28;19930;-76
2022/08/04 04:34:27;;;;;;;4.45;2.70;;;;;;;19.01;52.84;99626.88;10350367;28;20112;-77
2022/08/04 04:39:58;;;;;;;6.75;2.70;;;;;;;19.46;52.02;99622.31;10336076;28;20124;-76
2022/08/04 04:45:17;;;;;;;4.80;2.85;;;;;;;20.19;50.50;99612.94;10334059;28;20049;-76
2022/08/04 04:50:52;;;;;;;23.33;3.35;;;;;;;21.11;48.35;99619.97;10334524;28;20062;-77
2022/08/04 04:56:03;;;;;;;6.95;2.60;;;;;;;22.41;45.50;99617.69;10330244;28;20554;-77
2022/08/04 05:01:19;;;;;;;5.75;2.78;;;;;;;23.59;43.36;99621.69;10346381;28;20103;-77
2022/08/04 05:06:59;;;;;;;4.35;2.60;;;;;;;24.23;41.30;99613.81;10348718;28;20108;-77
2022/08/04 05:12:33;;;;;;;4.35;2.60;;;;;;;24.49;40.72;99610.59;10312718;28;20108;-77
2022/08/04 05:17:57;;;;;;;6.30;2.50;;;;;;;25.34;39.38;99616.88;10333948;28;20082;-77
2022/08/04 05:23:07;;;;;;;5.13;2.50;;;;;;;25.90;37.84;99610.47;10330962;28;20523;-77
2022/08/04 05:28:15;;;;;;;4.85;2.50;;;;;;;24.79;39.53;99617.59;10332522;28;20586;-77
2022/08/04 05:33:31;;;;;;;6.28;2.40;;;;;;;24.23;40.39;99618.31;10348123;28;20112;-77
2022/08/04 05:38:36;;;;;;;4.10;2.40;;;;;;;23.76;41.35;99620.53;10347579;28;20061;-77
2022/08/04 05:43:41;;;;;;;4.75;2.50;;;;;;;23.54;42.13;99624.91;10347037;28;20053;-77
2022/08/04 05:48:44;;;;;;;4.78;2.42;;;;;;;23.51;42.03;99630.63;10332081;28;20127;-77
2022/08/04 05:53:46;;;;;;;4.65;2.50;;;;;;;23.57;42.01;99632.56;10346649;28;20050;-77
2022/08/04 05:58:51;;;;;;;4.10;2.25;;;;;;;23.57;41.92;99627.22;10333550;28;20058;-77
2022/08/04 06:03:54;;;;;;;5.70;2.70;;;;;;;23.56;42.28;99625.56;10348705;28;20104;-77
2022/08/04 06:08:56;;;;;;;4.50;2.80;;;;;;;23.38;42.50;99628.53;10344112;28;20508;-77
2022/08/04 06:14:03;;;;;;;5.18;2.40;;;;;;;23.46;42.77;99625.81;10330577;28;20573;-77
2022/08/04 06:19:07;;;;;;;7.78;2.55;;;;;;;23.65;42.54;99623.66;10344820;28;20120;-77
2022/08/04 06:24:31;;;;;;;6.55;2.60;;;;;;;23.88;42.07;99622.53;10345269;28;20078;-78
2022/08/04 06:29:37;;;;;;;6.85;2.65;;;;;;;23.93;42.01;99619.31;10330973;28;20100;-77
2022/08/04 06:34:41;;;;;;;7.10;2.90;;;;;;;23.95;41.99;99617.28;10328088;28;20058;-77
2022/08/04 06:39:43;;;;;;;7.85;2.60;;;;;;;23.93;41.83;99622.00;10335200;28;20108;-77
2022/08/04 06:44:50;;;;;;;7.70;2.50;;;;;;;24.06;41.99;99619.50;10345970;28;20069;-77
2022/08/04 06:49:53;;;;;;;11.32;3.20;;;;;;;24.34;41.57;99615.19;10347878;28;20050;-77
2022/08/04 06:55:15;;;;;;;8.10;3.10;;;;;;;24.59;41.10;99613.81;10337860;28;20079;-77
2022/08/04 07:00:17;;;;;;;7.97;2.85;;;;;;;24.81;40.76;99612.88;10354440;28;20061;-77
2022/08/04 07:05:20;;;;;;;9.23;2.80;;;;;;;24.92;40.36;99614.19;10336582;28;20074;-77
2022/08/04 07:10:23;;;;;;;7.07;2.85;;;;;;;25.12;39.62;99612.56;10334961;28;20050;-78
2022/08/04 07:15:26;;;;;;;7.13;2.58;;;;;;;25.34;39.39;99610.69;10351477;28;20054;-77
2022/08/04 07:20:29;;;;;;;6.15;2.50;;;;;;;25.72;38.50;99601.28;10354772;28;20942;-77
2022/08/04 07:25:38;;;;;;;6.28;2.67;;;;;;;25.65;37.94;99600.44;10337388;28;20053;-77
2022/08/04 07:31:01;;;;;;;11.35;2.72;;;;;;;25.73;37.74;99601.06;10347715;28;20148;-77
2022/08/04 07:36:03;;;;;;;6.40;2.65;;;;;;;25.85;37.60;99604.84;10328788;28;20527;-77
2022/08/04 07:41:15;;;;;;;;;;;;;;;26.04;36.89;99597.19;10332779;28;20054;-78
2022/08/04 07:46:37;;;;;;;6.15;2.55;;;;;;;27.55;34.80;99599.16;10348012;28;19925;-78
2022/08/04 07:51:40;;;;;;;8.77;2.72;;;;;;;28.15;33.94;99598.00;10333279;28;20104;-78
2022/08/04 07:56:42;;;;;;;7.60;2.45;;;;;;;28.64;32.87;99584.78;10333334;28;20189;-78
2022/08/04 08:01:46;;;;;;;7.72;2.67;;;;;;;28.68;32.51;99586.00;10332726;28;20109;-79
2022/08/04 08:06:47;;;;;;;5.97;2.95;;;;;;;28.96;31.62;99585.59;10335745;28;20100;-79
2022/08/04 08:11:52;;;;;;;8.73;2.50;;;;;;;29.51;31.19;99578.53;10334327;28;20064;-78
2022/08/04 08:17:13;;;;;;;5.82;2.72;;;;;;;29.89;30.31;99576.47;10329755;28;20132;-79
2022/08/04 08:22:15;;;;;;;5.72;2.38;;;;;;;30.76;28.93;99575.19;10344231;28;20521;-79
2022/08/04 08:27:17;;;;;;;6.68;2.33;;;;;;;31.41;27.74;99566.03;10330062;28;20061;-79
2022/08/04 08:32:20;;;;;;;9.80;2.35;;;;;;;31.54;27.34;99563.13;10333633;28;20058;-79
2022/08/04 08:37:33;;;;;;;5.95;2.38;;;;;;;32.02;26.33;99555.56;10331453;28;20057;-79
2022/08/04 08:42:45;;;;;;;9.73;2.40;;;;;;;32.76;25.87;99559.97;10348096;28;20052;-79
2022/08/04 08:48:15;;;;;;;5.75;2.83;;;;;;;32.52;25.71;99557.63;10347423;28;20089;-79
2022/08/04 08:53:29;;;;;;;6.43;2.67;;;;;;;32.68;25.57;99552.25;10333888;28;20054;-79
2022/08/04 08:58:54;;;;;;;9.48;2.63;;;;;;;33.43;25.37;99549.97;10347521;28;20065;-79
2022/08/04 09:04:29;;;;;;;9.13;2.70;;;;;;;34.03;24.37;99543.78;10331487;28;20112;-79
2022/08/04 09:09:57;;;;;;;7.78;2.50;;;;;;;34.47;23.89;99538.06;10342832;28;20060;-79
2022/08/04 09:15:28;;;;;;;7.88;2.35;;;;;;;34.26;24.07;99533.50;10330792;28;20058;-79
2022/08/04 09:20:38;;;;;;;5.38;2.33;;;;;;;34.32;23.90;99534.34;10346401;28;20099;-79
2022/08/04 09:25:53;;;;;;;6.38;2.45;;;;;;;34.51;23.56;99533.75;10333008;28;20057;-79
2022/08/04 09:31:18;;;;;;;5.43;2.22;;;;;;;34.53;23.58;99533.53;10346171;28;20051;-79
2022/08/04 09:36:27;;;;;;;6.43;2.50;;;;;;;34.76;23.57;99533.19;10329878;28;20435;-79
2022/08/04 09:41:41;;;;;;;5.35;2.28;;;;;;;35.13;23.44;99528.63;10332499;28;20515;-79
2022/08/04 09:47:03;;;;;;;5.68;2.33;;;;;;;35.19;23.05;99521.31;10345029;28;20062;-79
2022/08/04 09:52:17;;;;;;;9.32;2.20;;;;;;;35.07;23.23;99524.25;10330540;28;20062;-79
2022/08/04 09:57:33;;;;;;;9.05;2.70;;;;;;;34.92;23.33;99513.25;10349542;28;20056;-79
2022/08/04 10:02:57;;;;;;;4.53;2.25;;;;;;;35.28;22.58;99508.91;10331674;28;20463;-80
2022/08/04 10:08:05;;;;;;;10.13;2.30;;;;;;;35.13;22.55;99508.78;10332154;28;20805;-79
2022/08/04 10:13:20;;;;;;;8.38;2.45;;;;;;;35.42;22.25;99507.38;10345094;28;20140;-79
2022/08/04 10:18:44;;;;;;;6.05;2.28;;;;;;;35.27;22.41;99494.47;10347823;28;20547;-79
2022/08/04 10:24:17;;;;;;;7.53;2.63;;;;;;;35.69;21.94;99485.47;10331256;28;20538;-79
2022/08/04 10:29:35;;;;;;;6.05;2.00;;;;;;;35.88;21.43;99492.91;10354292;28;20081;-80
2022/08/04 10:35:09;;;;;;;5.18;2.20;;;;;;;36.07;21.17;99474.19;10358909;28;20581;-79
2022/08/04 10:40:39;;;;;;;8.00;2.10;;;;;;;36.39;20.70;99466.66;10353832;28;20466;-80
2022/08/04 10:45:46;;;;;;;7.20;2.00;;;;;;;35.68;21.21;99470.22;10335397;28;20097;-80
2022/08/04 10:51:35;;;;;;;7.85;1.88;;;;;;;35.50;21.04;99465.25;10335074;28;20081;-80
2022/08/04 10:57:07;;;;;;;4.03;1.90;;;;;;;35.50;20.87;99451.66;10347996;28;20054;-80
2022/08/04 11:02:24;;;;;;;4.07;1.60;;;;;;;35.44;19.36;99450.81;10351524;28;20062;-80
2022/08/04 11:07:30;;;;;;;4.63;1.70;;;;;;;35.25;19.14;99460.47;10338276;28;20108;-80
2022/08/04 11:12:33;;;;;;;3.58;1.45;;;;;;;35.32;19.09;99440.13;10336699;28;20128;-80
2022/08/04 11:17:45;;;;;;;5.82;1.60;;;;;;;35.83;19.03;99445.84;10336494;28;20056;-80
2022/08/04 11:23:10;;;;;;;3.35;1.80;;;;;;;35.44;18.65;99450.81;10348138;28;20080;-80
2022/08/04 11:28:22;;;;;;;5.00;1.50;;;;;;;35.27;19.16;99448.25;10350891;28;20061;-80
2022/08/04 11:33:55;;;;;;;4.07;1.70;;;;;;;35.75;18.45;99446.31;10353582;28;20467;-79
2022/08/04 11:39:28;;;;;;;4.85;1.60;;;;;;;35.89;17.85;99458.38;10349726;28;20066;-79
2022/08/04 11:44:48;;;;;;;4.38;1.60;;;;;;;35.77;18.88;99458.53;10338424;28;20054;-79
2022/08/04 11:50:11;;;;;;;8.80;1.58;;;;;;;35.85;18.42;99457.25;10352202;28;20058;-79
2022/08/04 11:55:16;;;;;;;7.47;1.70;;;;;;;35.96;18.56;99448.84;10353311;28;20100;-80
2022/08/04 12:00:18;;;;;;;2.03;1.42;;;;;;;36.01;18.77;99448.06;10335282;28;20879;-80
2022/08/04 12:05:30;;;;;;;3.97;1.40;;;;;;;36.05;17.85;99449.16;10331979;28;20070;-80
2022/08/04 12:11:04;;;;;;;4.25;1.58;;;;;;;36.17;18.35;99441.53;10330793;28;20042;-80
2022/08/04 12:16:14;;;;;;;3.42;1.40;;;;;;;37.01;18.07;99435.59;10333023;28;20452;-80
2022/08/04 12:21:34;;;;;;;5.95;1.50;;;;;;;36.80;16.30;99423.91;10333092;28;20050;-80
2022/08/04 12:26:43;;;;;;;4.13;1.40;;;;;;;37.02;17.27;99431.75;10350014;28;20062;-80
2022/08/04 12:31:57;;;;;;;3.63;1.55;;;;;;;36.83;17.07;99428.81;10334564;28;20053;-80
2022/08/04 12:37:11;;;;;;;3.47;1.33;;;;;;;36.71;16.57;99415.47;10331318;28;20112;-80
2022/08/04 12:42:35;;;;;;;3.60;1.35;;;;;;;36.93;16.57;99407.78;10328114;28;20053;-80
2022/08/04 12:47:40;;;;;;;2.58;1.30;;;;;;;36.82;16.48;99399.91;10345250;28;20512;-80
2022/08/04 12:52:48;;;;;;;5.95;1.35;;;;;;;36.92;16.43;99397.16;10323655;28;21116;-80
2022/08/04 12:58:15;;;;;;;4.05;1.50;;;;;;;37.27;16.21;99390.81;10333572;28;20460;-79
2022/08/04 13:03:46;;;;;;;5.85;1.50;;;;;;;37.47;15.86;99386.09;10335199;28;20050;-80
2022/08/04 13:08:48;;;;;;;2.25;1.35;;;;;;;37.52;15.87;99379.81;10332904;28;20646;-81
2022/08/04 13:13:56;;;;;;;2.25;1.30;;;;;;;37.29;15.18;99383.19;10329697;28;20465;-80
2022/08/04 13:19:18;;;;;;;2.13;1.30;;;;;;;36.96;15.41;99379.16;10343268;28;20125;-80
2022/08/04 13:24:28;;;;;;;4.30;1.52;;;;;;;37.22;15.43;99378.03;10334235;28;20053;-80
2022/08/04 13:35:33;;;;;;;1.70;1.23;;;;;;;37.23;15.40;99368.75;10328612;28;20140;-79
2022/08/04 13:41:04;;;;;;;5.65;1.30;;;;;;;37.26;15.08;99367.38;10337147;28;20157;-79
2022/08/04 13:46:08;;;;;;;2.60;1.27;;;;;;;37.39;14.73;99351.22;10331734;28;20072;-79
2022/08/04 13:51:11;;;;;;;2.60;1.25;;;;;;;37.70;14.67;99349.19;10332562;28;20100;-79
2022/08/04 13:56:14;;;;;;;7.75;1.40;;;;;;;37.86;15.06;99355.34;10341148;28;20073;-82
2022/08/04 14:01:23;;;;;;;4.38;1.20;;;;;;;37.48;14.26;99346.00;10347442;28;20095;-81
2022/08/04 14:06:49;;;;;;;5.20;1.30;;;;;;;37.24;14.77;99343.09;10348873;28;20107;-81
2022/08/04 14:11:53;;;;;;;3.30;1.30;;;;;;;37.23;14.88;99346.13;10365376;28;20101;-81
2022/08/04 14:17:17;;;;;;;2.38;1.30;;;;;;;37.17;14.70;99341.78;10358228;28;20153;-81
2022/08/04 14:22:24;;;;;;;3.40;1.30;;;;;;;37.48;14.13;99341.34;10343399;28;20064;-81
2022/08/04 14:27:41;;;;;;;3.70;1.40;;;;;;;37.76;14.25;99334.41;10358639;28;20058;-81
2022/08/04 14:33:02;;;;;;;2.57;1.20;;;;;;;37.92;13.71;99335.09;10341876;28;20163;-81
2022/08/04 14:38:48;;;;;;;2.28;1.20;;;;;;;37.84;13.95;99322.06;10354047;28;20057;-81
2022/08/04 14:43:53;;;;;;;4.00;1.10;;;;;;;37.59;14.36;99323.84;10353961;28;20519;-81
2022/08/04 14:49:02;;;;;;;3.88;1.17;;;;;;;37.10;14.45;99330.34;10339107;28;20105;-81
2022/08/04 14:54:04;;;;;;;3.03;1.20;;;;;;;36.92;15.16;99324.41;10338396;28;20737;-81
2022/08/04 14:59:14;;;;;;;;;;;;;;;36.15;16.03;99345.69;10341384;28;20061;-81
2022/08/04 15:04:18;;;;;;;3.83;1.50;;;;;;;36.27;16.85;99340.84;10336023;28;20401;-81
2022/08/04 15:09:21;;;;;;;3.33;1.40;;;;;;;36.09;17.58;99353.06;10353321;28;20116;-81
2022/08/04 15:14:24;;;;;;;4.43;1.55;;;;;;;35.89;17.56;99338.63;10339474;28;20054;-81
2022/08/04 15:19:39;;;;;;;3.17;1.50;;;;;;;35.68;18.36;99335.00;10340183;28;20492;-81
2022/08/04 15:24:56;;;;;;;;;;;;;;;35.10;19.46;99336.13;10336298;28;20144;-81
2022/08/04 15:30:04;;;;;;;5.80;1.77;;;;;;;35.44;19.05;99338.47;10354358;28;20260;-81
2022/08/04 15:35:12;;;;;;;10.65;1.80;;;;;;;35.66;19.10;99347.25;10347039;28;20047;-81
2022/08/04 15:40:18;;;;;;;7.45;1.85;;;;;;;35.99;18.73;99346.78;10354676;28;20109;-81
2022/08/04 15:46:03;;;;;;;5.03;1.88;;;;;;;36.09;18.57;99341.34;10337488;28;20054;-81
2022/08/04 15:51:26;;;;;;;8.30;1.80;;;;;;;36.29;18.52;99338.66;10339645;28;20050;-80
2022/08/04 15:56:36;;;;;;;3.53;1.40;;;;;;;36.18;18.92;99339.69;10335955;28;20192;-80
2022/08/04 16:01:38;;;;;;;5.88;1.67;;;;;;;35.93;18.94;99342.44;10334927;28;20074;-81
2022/08/04 16:06:43;;;;;;;3.42;1.60;;;;;;;35.34;19.54;99352.88;10338183;28;20105;-81
2022/08/04 16:11:44;;;;;;;3.75;1.60;;;;;;;34.98;19.31;99346.41;10340906;28;20245;-81
2022/08/04 16:16:48;;;;;;;6.03;1.60;;;;;;;35.01;19.66;99350.50;10344013;28;20054;-81
2022/08/04 16:21:50;;;;;;;7.10;1.65;;;;;;;34.78;20.00;99359.03;10346119;28;20057;-81
2022/08/04 16:26:57;;;;;;;7.95;1.70;;;;;;;34.77;20.20;99360.97;10359008;28;20054;-79
2022/08/04 16:32:05;;;;;;;4.13;1.60;;;;;;;34.54;20.03;99361.34;10343572;28;20152;-80
2022/08/04 16:37:12;;;;;;;6.03;1.60;;;;;;;34.53;20.29;99355.06;10356131;28;20053;-80
2022/08/04 16:42:29;;;;;;;6.95;1.80;;;;;;;34.60;20.60;99357.56;10351788;28;20081;-80
2022/08/04 16:47:46;;;;;;;7.43;1.77;;;;;;;34.92;20.33;99354.81;10351922;28;20077;-80
2022/08/04 16:52:50;;;;;;;4.57;1.80;;;;;;;35.32;19.68;99346.84;10350413;28;20054;-80
2022/08/04 16:57:54;;;;;;;7.93;2.00;;;;;;;35.61;20.15;99345.31;10335526;28;20058;-80
2022/08/04 17:02:58;;;;;;;7.25;1.73;;;;;;;35.46;20.73;99353.47;10334707;28;20053;-80
2022/08/04 17:08:03;;;;;;;6.93;1.77;;;;;;;35.48;20.79;99353.19;10334069;28;20049;-80
2022/08/04 17:13:45;;;;;;;9.95;2.00;;;;;;;35.34;21.52;99353.66;10331202;28;20128;-80
2022/08/04 17:19:07;;;;;;;3.97;1.95;;;;;;;35.10;22.19;99357.88;10323869;28;20688;-80
2022/08/04 17:24:27;;;;;;;10.02;1.90;;;;;;;34.86;22.64;99353.94;10331866;28;20046;-80
2022/08/04 17:29:29;;;;;;;11.48;2.40;;;;;;;34.68;23.37;99350.81;10346734;28;20617;-80
2022/08/04 17:34:49;;;;;;;9.43;2.20;;;;;;;34.29;23.90;99350.25;10331651;28;20054;-80
2022/08/04 17:39:51;;;;;;;8.02;2.05;;;;;;;34.03;23.88;99359.25;10333483;28;20078;-80
2022/08/04 17:45:10;;;;;;;8.40;2.40;;;;;;;33.75;24.62;99355.72;10332290;28;20068;-80
2022/08/04 17:50:33;;;;;;;8.05;2.00;;;;;;;33.46;25.18;99357.00;10332226;28;20141;-80
2022/08/04 17:55:42;;;;;;;11.90;2.13;;;;;;;33.07;25.51;99363.53;10330992;28;20530;-80
2022/08/04 18:00:44;;;;;;;6.55;2.03;;;;;;;32.92;25.46;99360.59;10326108;28;20116;-80
2022/08/04 18:05:53;;;;;;;7.88;2.08;;;;;;;32.75;25.91;99367.94;10343289;28;20145;-80
2022/08/04 18:11:19;;;;;;;13.95;2.60;;;;;;;32.53;26.46;99364.34;10331989;28;20506;-80
2022/08/04 18:16:22;;;;;;;6.95;2.00;;;;;;;32.16;27.32;99372.09;10343333;28;21130;-80
2022/08/04 18:21:24;;;;;;;5.85;2.22;;;;;;;31.77;27.90;99371.09;10325745;28;20054;-80
2022/08/04 18:26:26;;;;;;;5.75;2.35;;;;;;;31.66;28.40;99381.97;10333198;28;20108;-80
2022/08/04 18:31:34;;;;;;;10.23;1.90;;;;;;;31.36;28.98;99385.69;10338859;28;20070;-80
2022/08/04 18:36:37;;;;;;;10.43;2.35;;;;;;;31.17;29.05;99397.69;10351717;28;20054;-80
2022/08/04 18:41:56;;;;;;;10.45;2.08;;;;;;;31.12;29.37;99405.69;10335964;28;20077;-80
2022/08/04 18:47:05;;;;;;;6.03;1.90;;;;;;;31.07;29.39;99410.97;10341908;28;20054;-80
2022/08/04 18:52:23;;;;;;;15.77;2.20;;;;;;;30.99;29.68;99410.50;10339442;28;20259;-80
2022/08/04 18:57:29;;;;;;;7.95;1.90;;;;;;;30.88;29.86;99411.31;10338698;28;20116;-80
2022/08/04 19:02:51;;;;;;;9.43;2.13;;;;;;;30.84;29.79;99426.34;10355807;28;20148;-80
2022/08/04 19:07:53;;;;;;;10.38;2.10;;;;;;;30.81;29.96;99433.03;10336954;28;20065;-80
2022/08/04 19:13:15;;;;;;;12.77;2.50;;;;;;;30.80;30.14;99435.97;10338083;28;20100;-80
2022/08/04 19:18:28;;;;;;;9.73;2.10;;;;;;;30.62;30.42;99436.88;10337874;28;20052;-80
2022/08/04 19:23:30;;;;;;;9.52;2.30;;;;;;;30.56;30.30;99432.41;10326015;28;20108;-80
2022/08/04 19:28:53;;;;;;;7.35;2.30;;;;;;;30.56;30.38;99437.81;10326342;28;20049;-80
2022/08/04 19:33:56;;;;;;;6.53;2.10;;;;;;;30.43;30.71;99440.69;10328187;28;20061;-80
2022/08/04 19:39:07;;;;;;;9.93;2.55;;;;;;;30.37;30.91;99442.47;10336569;28;20220;-81
2022/08/04 19:44:12;;;;;;;8.20;2.10;;;;;;;30.30;31.07;99452.50;10336434;28;20145;-80
2022/08/04 19:49:15;;;;;;;6.72;2.05;;;;;;;30.09;31.11;99457.63;10335169;28;20167;-80
2022/08/04 19:54:38;;;;;;;6.30;1.73;;;;;;;30.12;31.44;99460.66;10335365;28;20054;-80
2022/08/04 19:59:41;;;;;;;10.82;2.17;;;;;;;30.10;31.42;99453.84;10337193;28;20053;-79
2022/08/04 20:04:48;;;;;;;7.30;2.10;;;;;;;29.92;31.53;99459.25;10331524;28;20068;-77
2022/08/04 20:09:52;;;;;;;6.07;2.10;;;;;;;29.78;31.76;99459.44;10331635;28;20058;-80
2022/08/04 20:14:54;;;;;;;5.50;2.03;;;;;;;29.68;32.00;99469.91;10336199;28;20053;-79
2022/08/04 20:19:56;;;;;;;7.43;2.17;;;;;;;29.54;32.40;99475.72;10334422;28;20476;-79
2022/08/04 20:24:58;;;;;;;9.13;2.15;;;;;;;29.39;33.12;99480.63;10333731;28;20041;-79
2022/08/04 20:30:20;;;;;;;7.40;2.22;;;;;;;29.24;33.59;99482.81;10326895;28;20133;-79
2022/08/04 20:35:24;;;;;;;11.52;2.58;;;;;;;29.08;33.60;99490.44;10332562;28;20491;-79
2022/08/04 20:40:29;;;;;;;4.38;2.20;;;;;;;28.93;33.70;99491.84;10332197;28;20161;-79
2022/08/04 20:45:31;;;;;;;8.20;1.90;;;;;;;28.76;34.03;99498.75;10319833;28;20821;-79
2022/08/04 20:50:52;;;;;;;4.93;1.98;;;;;;;28.61;34.34;99509.00;10331365;28;20119;-79
2022/08/04 20:55:54;;;;;;;3.78;1.80;;;;;;;28.37;34.58;99510.63;10335815;28;20053;-80
2022/08/04 21:00:56;;;;;;;13.85;5.30;;;;;;;28.14;34.56;99516.50;10353779;28;20052;-79
2022/08/04 21:05:58;;;;;;;5.05;2.22;;;;;;;28.11;34.69;99522.34;10330717;28;20069;-79
2022/08/04 21:11:02;;;;;;;11.10;2.65;;;;;;;27.99;35.21;99515.16;10339516;28;20054;-79
2022/08/04 21:16:07;;;;;;;5.63;2.10;;;;;;;27.86;35.30;99518.72;10351271;28;20104;-80
2022/08/04 21:21:09;;;;;;;6.75;2.40;;;;;;;27.72;35.57;99535.91;10332683;28;20112;-80
2022/08/04 21:26:23;;;;;;;5.65;2.30;;;;;;;27.65;35.90;99540.44;10333194;28;20053;-80
2022/08/04 21:31:26;;;;;;;6.03;2.00;;;;;;;27.63;35.56;99550.56;10348660;28;20067;-79
2022/08/04 21:36:28;;;;;;;4.47;2.10;;;;;;;27.44;36.12;99546.09;10333649;28;20050;-79
2022/08/04 21:41:32;;;;;;;6.47;2.30;;;;;;;27.27;36.85;99545.69;10332600;28;20061;-79
2022/08/04 21:46:35;;;;;;;7.68;2.25;;;;;;;27.26;37.00;99560.13;10333059;28;20054;-79
2022/08/04 21:51:45;;;;;;;5.43;2.30;;;;;;;27.13;37.02;99560.13;10328148;28;21059;-80
2022/08/04 21:57:01;;;;;;;7.50;2.35;;;;;;;27.08;37.60;99561.75;10330161;28;20058;-79
2022/08/04 22:02:23;;;;;;;6.95;2.30;;;;;;;26.96;37.99;99558.88;10328942;28;20388;-79
2022/08/04 22:07:26;;;;;;;7.95;2.40;;;;;;;26.90;38.19;99567.75;10329414;28;20148;-79
2022/08/04 22:12:47;;;;;;;5.05;2.33;;;;;;;26.95;38.25;99577.88;10340239;28;20105;-79
2022/08/04 22:17:52;;;;;;;6.55;2.72;;;;;;;26.85;38.93;99577.44;10328265;28;20159;-79
2022/08/04 22:22:54;;;;;;;14.27;2.80;;;;;;;26.82;39.68;99577.84;10333655;28;20046;-79
2022/08/04 22:28:07;;;;;;;8.68;3.10;;;;;;;26.69;40.70;99584.84;10337770;28;20053;-80
2022/08/04 22:33:09;;;;;;;9.48;3.25;;;;;;;26.43;41.73;99589.28;10336265;28;20046;-79
2022/08/04 22:38:13;;;;;;;9.45;3.28;;;;;;;26.26;42.25;99590.69;10334251;28;20510;-80
2022/08/04 22:43:36;;;;;;;9.38;3.50;;;;;;;26.29;42.38;99606.34;10347321;28;20068;-79
2022/08/04 22:48:39;;;;;;;11.93;3.13;;;;;;;26.23;42.61;99602.63;10333175;28;20427;-79
2022/08/04 22:53:45;;;;;;;7.97;2.78;;;;;;;26.13;42.78;99585.25;10336027;28;20061;-79
2022/08/04 22:58:49;;;;;;;8.20;3.05;;;;;;;26.07;43.01;99583.38;10334881;28;20058;-79
2022/08/04 23:03:51;;;;;;;8.13;3.30;;;;;;;26.02;43.51;99580.47;10340302;28;20699;-79
2022/08/04 23:08:56;;;;;;;11.98;3.45;;;;;;;25.96;43.67;99592.78;10338794;28;20089;-79
2022/08/04 23:14:00;;;;;;;7.78;3.10;;;;;;;25.88;43.92;99604.47;10364685;28;20057;-78
2022/08/04 23:19:02;;;;;;;8.05;2.90;;;;;;;25.88;43.98;99609.84;10355131;28;20508;-79
2022/08/04 23:24:10;;;;;;;7.95;3.10;;;;;;;25.82;44.21;99607.94;10358358;28;20054;-79
2022/08/04 23:29:14;;;;;;;7.32;3.30;;;;;;;25.94;43.99;99610.09;10341021;28;20062;-78
2022/08/04 23:34:15;;;;;;;9.82;3.22;;;;;;;25.63;44.77;99635.41;10354284;28;20727;-79
2022/08/04 23:39:19;;;;;;;8.05;3.28;;;;;;;25.66;44.63;99685.94;10336288;28;20058;-79
2022/08/04 23:44:22;;;;;;;10.00;3.08;;;;;;;25.67;44.62;99746.50;10352070;28;20061;-79
2022/08/04 23:49:27;;;;;;;13.02;3.03;;;;;;;25.74;44.74;99779.56;10335060;28;20054;-79
2022/08/04 23:54:45;;;;;;;26.90;6.50;;;;;;;25.66;48.59;99808.31;10350632;28;20419;-78
2022/08/04 23:59:52;;;;;;;18.48;5.45;;;;;;;25.26;51.14;99814.25;10352182;28;20132;-78
